createdAt,value
2023-01-27T00:00:52.131Z,29.80
2023-01-27T00:03:23.760Z,29.97
2023-01-27T00:05:50.988Z,27.47
2023-01-27T00:08:18.704Z,26.40
2023-01-27T00:10:45.965Z,29.80
2023-01-27T00:13:32.053Z,27.73
2023-01-27T00:15:59.429Z,27.47
2023-01-27T00:18:26.540Z,29.20
2023-01-27T00:21:12.344Z,30.27
2023-01-27T00:23:57.983Z,24.13
2023-01-27T00:26:25.264Z,30.23
2023-01-27T00:28:52.287Z,25.53
2023-01-27T00:31:38.550Z,29.63
2023-01-27T00:34:12.025Z,28.37
2023-01-27T00:36:41.588Z,27.93
2023-01-27T00:39:10.550Z,31.73
2023-01-27T00:41:38.351Z,26.33
2023-01-27T00:44:13.536Z,29.40
2023-01-27T00:46:42.307Z,33.57
2023-01-27T00:49:10.553Z,35.97
2023-01-27T00:51:37.941Z,27.10
2023-01-27T00:54:05.548Z,28.77
2023-01-27T00:56:33.453Z,29.57
2023-01-27T00:59:01.084Z,30.73
2023-01-27T01:01:28.620Z,25.50
2023-01-27T01:03:55.912Z,27.33
2023-01-27T01:06:23.117Z,31.80
2023-01-27T01:08:51.464Z,26.20
2023-01-27T01:11:23.359Z,27.90
2023-01-27T01:13:50.496Z,26.77
2023-01-27T01:16:23.108Z,26.33
2023-01-27T01:18:50.337Z,29.97
2023-01-27T01:21:17.693Z,21.03
2023-01-27T01:23:45.883Z,23.87
2023-01-27T01:26:15.853Z,28.83
2023-01-27T01:28:44.681Z,26.27
2023-01-27T01:31:14.867Z,27.13
2023-01-27T01:33:41.845Z,30.87
2023-01-27T01:36:11.655Z,28.63
2023-01-27T01:38:39.268Z,29.30
2023-01-27T01:41:10.290Z,30.23
2023-01-27T01:43:37.251Z,29.60
2023-01-27T01:46:06.214Z,31.40
2023-01-27T01:48:56.640Z,30.90
2023-01-27T01:51:29.908Z,23.10
2023-01-27T01:54:04.255Z,27.43
2023-01-27T01:56:54.670Z,27.87
2023-01-27T01:59:33.526Z,27.67
2023-01-27T02:02:04.970Z,26.60
2023-01-27T02:04:37.063Z,27.73
2023-01-27T02:07:41.949Z,24.13
2023-01-27T02:10:09.882Z,26.73
2023-01-27T02:12:37.185Z,31.60
2023-01-27T02:15:06.131Z,30.33
2023-01-27T02:17:33.559Z,32.40
2023-01-27T02:20:22.883Z,38.07
2023-01-27T02:23:06.289Z,41.77
2023-01-27T02:25:35.984Z,41.20
2023-01-27T02:28:05.855Z,43.67
2023-01-27T02:30:33.754Z,39.73
2023-01-27T02:33:01.152Z,35.50
2023-01-27T02:35:36.654Z,38.53
2023-01-27T02:38:06.887Z,39.00
2023-01-27T02:40:36.565Z,44.37
2023-01-27T02:43:04.990Z,45.27
2023-01-27T02:45:32.037Z,44.90
2023-01-27T02:47:59.436Z,47.70
2023-01-27T02:50:26.716Z,44.47
2023-01-27T02:52:53.965Z,44.20
2023-01-27T02:55:20.897Z,44.10
2023-01-27T02:57:49.896Z,49.67
2023-01-27T03:00:17.372Z,52.00
2023-01-27T03:02:44.727Z,43.80
2023-01-27T03:05:12.167Z,50.63
2023-01-27T03:07:39.640Z,50.53
2023-01-27T03:10:07.209Z,48.80
2023-01-27T03:12:34.528Z,43.07
2023-01-27T03:15:20.275Z,44.43
2023-01-27T03:18:06.412Z,41.60
2023-01-27T03:20:33.374Z,48.73
2023-01-27T03:23:00.624Z,45.10
2023-01-27T03:25:27.601Z,42.80
2023-01-27T03:27:55.580Z,48.17
2023-01-27T03:30:22.622Z,48.03
2023-01-27T03:32:49.842Z,47.73
2023-01-27T03:35:17.667Z,44.60
2023-01-27T03:38:04.038Z,44.20
2023-01-27T03:40:49.947Z,52.33
2023-01-27T03:43:35.670Z,48.87
2023-01-27T03:46:20.816Z,54.47
2023-01-27T03:48:52.735Z,55.83
2023-01-27T03:51:21.852Z,59.93
2023-01-27T03:53:49.534Z,49.97
2023-01-27T03:56:18.086Z,49.87
2023-01-27T03:58:45.576Z,55.93
2023-01-27T04:01:15.507Z,57.83
2023-01-27T04:04:01.672Z,55.57
2023-01-27T04:06:50.088Z,50.33
2023-01-27T04:09:22.187Z,52.03
2023-01-27T04:11:55.245Z,53.83
2023-01-27T04:14:25.630Z,53.80
2023-01-27T04:16:54.593Z,62.43
2023-01-27T04:19:22.006Z,55.07
2023-01-27T04:21:49.246Z,55.47
2023-01-27T04:24:17.444Z,55.63
2023-01-27T04:26:45.681Z,58.17
2023-01-27T04:29:13.844Z,55.80
2023-01-27T04:31:41.069Z,59.00
2023-01-27T04:34:10.562Z,59.37
2023-01-27T04:36:37.543Z,57.47
2023-01-27T04:39:04.766Z,54.97
2023-01-27T04:41:31.739Z,51.93
2023-01-27T04:43:58.943Z,53.57
2023-01-27T04:46:26.107Z,53.63
2023-01-27T04:48:53.907Z,53.33
2023-01-27T04:51:20.851Z,54.93
2023-01-27T04:53:48.184Z,59.10
2023-01-27T04:56:24.594Z,53.77
2023-01-27T04:58:52.404Z,64.57
2023-01-27T05:01:19.638Z,60.67
2023-01-27T05:03:46.900Z,63.87
2023-01-27T05:06:13.997Z,52.93
2023-01-27T05:08:41.597Z,52.47
2023-01-27T05:11:08.701Z,56.80
2023-01-27T05:13:36.010Z,61.73
2023-01-27T05:16:08.404Z,57.17
2023-01-27T05:18:36.204Z,56.20
2023-01-27T05:21:03.785Z,59.37
2023-01-27T05:23:37.238Z,52.70
2023-01-27T05:26:16.942Z,64.80
2023-01-27T05:28:45.719Z,52.93
2023-01-27T05:31:19.292Z,48.93
2023-01-27T05:33:48.487Z,60.50
2023-01-27T05:36:17.994Z,55.80
2023-01-27T05:38:45.453Z,54.50
2023-01-27T05:41:14.265Z,51.30
2023-01-27T05:43:43.124Z,64.83
2023-01-27T05:46:19.612Z,57.90
2023-01-27T05:48:49.815Z,64.40
2023-01-27T05:51:18.975Z,53.77
2023-01-27T05:53:46.838Z,54.80
2023-01-27T05:56:16.947Z,53.80
2023-01-27T05:58:44.854Z,61.57
2023-01-27T06:01:17.617Z,62.30
2023-01-27T06:03:45.809Z,53.60
2023-01-27T06:06:14.675Z,56.17
2023-01-27T06:08:42.745Z,57.70
2023-01-27T06:11:09.947Z,63.17
2023-01-27T06:13:38.990Z,64.37
2023-01-27T06:16:08.726Z,55.47
2023-01-27T06:18:37.324Z,58.13
2023-01-27T06:21:10.643Z,61.70
2023-01-27T06:23:38.657Z,66.10
2023-01-27T06:26:09.770Z,62.40
2023-01-27T06:28:38.146Z,61.57
2023-01-27T06:31:17.129Z,50.03
2023-01-27T06:33:45.139Z,67.10
2023-01-27T06:36:15.110Z,54.27
2023-01-27T06:38:42.980Z,62.17
2023-01-27T06:41:10.713Z,63.33
2023-01-27T06:43:38.036Z,55.77
2023-01-27T06:46:06.161Z,52.97
2023-01-27T06:48:34.063Z,52.80
2023-01-27T06:51:01.267Z,50.50
2023-01-27T06:53:28.651Z,50.53
2023-01-27T06:56:00.495Z,54.23
2023-01-27T06:58:28.524Z,52.60
2023-01-27T07:00:56.702Z,51.57
2023-01-27T07:03:24.317Z,59.53
2023-01-27T07:05:52.541Z,56.30
2023-01-27T07:08:19.888Z,51.67
2023-01-27T07:10:46.886Z,53.70
2023-01-27T07:13:15.208Z,51.60
2023-01-27T07:15:42.957Z,53.23
2023-01-27T07:18:12.378Z,50.23
2023-01-27T07:20:42.374Z,57.83
2023-01-27T07:23:10.215Z,55.13
2023-01-27T07:25:37.603Z,54.07
2023-01-27T07:28:05.916Z,52.07
2023-01-27T07:30:38.075Z,49.57
2023-01-27T07:33:11.192Z,45.57
2023-01-27T07:35:39.477Z,54.37
2023-01-27T07:38:07.278Z,51.93
2023-01-27T07:40:35.668Z,48.27
2023-01-27T07:43:03.735Z,45.70
2023-01-27T07:45:31.082Z,48.77
2023-01-27T07:48:06.142Z,40.73
2023-01-27T07:50:33.348Z,46.27
2023-01-27T07:53:02.455Z,47.13
2023-01-27T07:55:30.207Z,52.87
2023-01-27T07:57:57.875Z,45.63
2023-01-27T08:00:25.397Z,46.00
2023-01-27T08:02:54.255Z,37.67
2023-01-27T08:05:22.922Z,35.60
2023-01-27T08:07:51.482Z,32.77
2023-01-27T08:10:19.606Z,33.50
2023-01-27T08:12:47.137Z,30.37
2023-01-27T08:15:16.035Z,35.10
2023-01-27T08:17:44.596Z,31.97
2023-01-27T08:20:15.836Z,32.93
2023-01-27T08:22:53.695Z,43.83
2023-01-27T08:25:23.537Z,38.53
2023-01-27T08:27:52.299Z,33.37
2023-01-27T08:30:19.829Z,38.07
2023-01-27T08:32:47.816Z,42.33
2023-01-27T08:35:26.518Z,40.23
2023-01-27T08:37:57.346Z,37.70
2023-01-27T08:40:28.016Z,34.83
2023-01-27T08:42:58.367Z,35.60
2023-01-27T08:45:26.359Z,31.60
2023-01-27T08:47:54.768Z,32.83
2023-01-27T08:50:22.449Z,36.20
2023-01-27T08:52:52.350Z,30.43
2023-01-27T08:55:23.711Z,32.20
2023-01-27T08:58:03.754Z,33.80
2023-01-27T09:00:32.642Z,27.67
2023-01-27T09:03:12.832Z,28.40
2023-01-27T09:09:11.167Z,21.43
2023-01-27T09:11:42.495Z,30.80
2023-01-27T09:14:10.390Z,23.93
2023-01-27T09:16:37.683Z,23.70
2023-01-27T09:19:04.799Z,23.80
2023-01-27T09:21:32.154Z,24.60
2023-01-27T09:23:59.236Z,24.13
2023-01-27T09:26:26.537Z,23.37
2023-01-27T09:28:53.530Z,26.20
2023-01-27T09:31:20.908Z,33.67
2023-01-27T09:33:47.979Z,28.47
2023-01-27T09:36:20.282Z,27.23
2023-01-27T09:39:02.699Z,30.30
2023-01-27T09:41:30.037Z,30.27
2023-01-27T09:43:56.976Z,27.67
2023-01-27T09:46:47.313Z,30.40
2023-01-27T09:49:47.468Z,30.07
2023-01-27T09:52:20.953Z,29.30
2023-01-27T09:54:59.625Z,35.47
2023-01-27T09:57:54.065Z,31.60
2023-01-27T10:00:42.866Z,32.60
2023-01-27T10:03:48.201Z,28.80
2023-01-27T10:06:19.770Z,27.10
2023-01-27T10:09:24.900Z,25.70
2023-01-27T10:12:10.711Z,20.30
2023-01-27T10:15:02.769Z,26.47
2023-01-27T10:18:14.070Z,30.03
2023-01-27T10:21:23.699Z,28.57
2023-01-27T10:23:56.479Z,30.50
2023-01-27T10:26:30.605Z,30.13
2023-01-27T10:29:10.158Z,25.23
2023-01-27T10:32:00.351Z,29.43
2023-01-27T10:34:34.400Z,28.00
2023-01-27T10:37:26.298Z,23.00
2023-01-27T10:40:11.167Z,27.33
2023-01-27T10:42:44.723Z,29.10
2023-01-27T10:45:28.830Z,28.13
2023-01-27T10:48:11.343Z,28.30
2023-01-27T10:50:46.810Z,24.03
2023-01-27T10:53:22.170Z,24.13
2023-01-27T10:56:04.645Z,25.27
2023-01-27T10:58:55.415Z,24.00
2023-01-27T11:01:36.246Z,24.57
2023-01-27T11:04:06.550Z,23.03
2023-01-27T11:06:38.599Z,21.20
2023-01-27T11:09:26.199Z,25.90
2023-01-27T11:11:56.128Z,25.17
2023-01-27T11:14:41.723Z,28.10
2023-01-27T11:17:24.563Z,25.80
2023-01-27T11:20:29.641Z,28.27
2023-01-27T11:23:18.148Z,26.23
2023-01-27T11:26:12.156Z,26.17
2023-01-27T11:29:06.462Z,30.83
2023-01-27T11:32:00.043Z,33.80
2023-01-27T11:35:03.933Z,30.23
2023-01-27T11:37:42.762Z,34.63
2023-01-27T11:40:36.550Z,29.83
2023-01-27T11:43:05.091Z,34.13
2023-01-27T11:45:36.082Z,38.80
2023-01-27T11:48:08.052Z,33.93
2023-01-27T11:50:36.610Z,32.00
2023-01-27T11:53:25.497Z,39.97
2023-01-27T11:55:58.623Z,37.90
2023-01-27T11:58:28.454Z,39.10
2023-01-27T12:01:01.564Z,29.40
2023-01-27T12:03:47.125Z,31.03
2023-01-27T12:06:18.866Z,33.00
2023-01-27T12:08:49.764Z,34.70
2023-01-27T12:11:22.954Z,32.87
2023-01-27T12:14:00.232Z,36.43
2023-01-27T12:16:40.867Z,30.60
2023-01-27T12:19:22.323Z,36.30
2023-01-27T12:22:11.214Z,29.30
2023-01-27T12:25:04.453Z,32.33
2023-01-27T12:27:41.051Z,30.93
2023-01-27T12:30:22.287Z,34.30
2023-01-27T12:32:49.720Z,36.97
2023-01-27T12:35:30.696Z,37.77
2023-01-27T12:38:14.319Z,32.83
2023-01-27T12:40:44.795Z,33.87
2023-01-27T12:43:20.000Z,32.53
2023-01-27T12:46:10.235Z,32.30
2023-01-27T12:48:47.979Z,34.70
2023-01-27T12:51:22.142Z,35.40
2023-01-27T12:54:22.941Z,31.97
2023-01-27T12:56:53.281Z,36.43
2023-01-27T12:59:23.597Z,36.00
2023-01-27T13:02:27.239Z,41.17
2023-01-27T13:05:02.252Z,40.97
2023-01-27T13:07:37.922Z,44.10
2023-01-27T13:10:15.998Z,42.43
2023-01-27T13:12:53.835Z,41.90
2023-01-27T13:15:23.846Z,46.30
2023-01-27T13:17:54.936Z,46.27
2023-01-27T13:20:33.813Z,47.83
2023-01-27T13:23:19.944Z,50.30
2023-01-27T13:26:06.906Z,55.47
2023-01-27T13:28:52.872Z,58.77
2023-01-27T13:31:33.112Z,54.73
2023-01-27T13:34:17.685Z,55.93
2023-01-27T13:37:33.180Z,57.97
2023-01-27T13:40:22.597Z,52.47
2023-01-27T13:43:29.134Z,55.50
2023-01-27T13:46:08.719Z,53.83
2023-01-27T13:48:42.800Z,50.40
2023-01-27T13:51:18.091Z,50.83
2023-01-27T13:53:47.746Z,51.43
2023-01-27T13:56:15.001Z,61.77
2023-01-27T13:59:09.169Z,51.10
2023-01-27T14:02:12.703Z,50.13
2023-01-27T14:05:01.086Z,53.03
2023-01-27T14:08:15.317Z,56.60
2023-01-27T14:11:11.391Z,54.23
2023-01-27T14:13:50.927Z,61.57
2023-01-27T14:16:21.703Z,49.90
2023-01-27T14:18:59.283Z,53.40
2023-01-27T14:21:59.207Z,58.50
2023-01-27T14:25:00.939Z,52.57
2023-01-27T14:27:47.271Z,54.10
2023-01-27T14:30:27.712Z,58.73
2023-01-27T14:33:15.833Z,53.13
2023-01-27T14:35:46.375Z,55.97
2023-01-27T14:38:21.833Z,50.70
2023-01-27T14:41:36.577Z,50.47
2023-01-27T14:44:13.998Z,51.23
2023-01-27T14:47:01.196Z,55.03
2023-01-27T14:49:41.945Z,52.30
2023-01-27T14:52:41.996Z,52.57
2023-01-27T14:55:28.958Z,58.67
2023-01-27T14:58:15.072Z,58.93
2023-01-27T15:01:02.767Z,53.87
2023-01-27T15:03:50.638Z,55.10
2023-01-27T15:06:43.163Z,56.27
2023-01-27T15:09:22.484Z,52.77
2023-01-27T15:12:09.524Z,53.63
2023-01-27T15:15:03.063Z,65.77
2023-01-27T15:17:41.916Z,52.63
2023-01-27T15:20:39.518Z,59.97
2023-01-27T15:23:26.230Z,55.90
2023-01-27T15:26:00.138Z,63.83
2023-01-27T15:28:32.397Z,64.80
2023-01-27T15:31:11.526Z,64.00
2023-01-27T15:33:51.129Z,62.67
2023-01-27T15:36:27.472Z,64.53
2023-01-27T15:39:09.810Z,67.20
2023-01-27T15:42:09.840Z,57.37
2023-01-27T15:45:02.162Z,59.20
2023-01-27T15:47:37.338Z,54.00
2023-01-27T15:50:19.018Z,58.70
2023-01-27T15:52:48.246Z,65.47
2023-01-27T15:55:34.804Z,68.03
2023-01-27T15:58:10.601Z,68.90
2023-01-27T16:00:42.780Z,68.43
2023-01-27T16:03:43.937Z,72.10
2023-01-27T16:06:17.348Z,67.40
2023-01-27T16:08:55.709Z,59.00
2023-01-27T16:11:28.630Z,74.37
2023-01-27T16:14:16.439Z,76.50
2023-01-27T16:16:52.612Z,68.67
2023-01-27T16:19:23.036Z,70.53
2023-01-27T16:21:57.693Z,76.60
2023-01-27T16:24:41.799Z,74.07
2023-01-27T16:27:14.420Z,67.60
2023-01-27T16:29:47.564Z,67.43
2023-01-27T16:32:20.290Z,68.00
2023-01-27T16:35:15.561Z,61.40
2023-01-27T16:38:00.216Z,64.03
2023-01-27T16:40:29.277Z,69.30
2023-01-27T16:43:08.867Z,60.57
2023-01-27T16:46:05.391Z,64.57
2023-01-27T16:48:43.360Z,56.73
2023-01-27T16:51:25.392Z,53.33
2023-01-27T16:53:54.963Z,55.10
2023-01-27T16:56:26.588Z,54.87
2023-01-27T16:59:00.650Z,67.70
2023-01-27T17:01:48.449Z,58.47
2023-01-27T17:04:30.320Z,67.33
2023-01-27T17:07:11.968Z,53.10
2023-01-27T17:10:00.079Z,63.03
2023-01-27T17:12:27.254Z,58.23
2023-01-27T17:14:54.748Z,65.00
2023-01-27T17:17:24.998Z,64.27
2023-01-27T17:20:02.247Z,68.43
2023-01-27T17:22:38.909Z,64.23
2023-01-27T17:25:15.589Z,67.03
2023-01-27T17:27:45.019Z,73.80
2023-01-27T17:30:18.376Z,75.87
2023-01-27T17:32:55.515Z,84.10
2023-01-27T17:35:28.420Z,77.20
2023-01-27T17:38:22.126Z,72.63
2023-01-27T17:40:52.184Z,86.90
2023-01-27T17:43:32.910Z,78.37
2023-01-27T17:46:06.149Z,71.47
2023-01-27T17:48:35.766Z,86.23
2023-01-27T17:51:02.736Z,85.43
2023-01-27T17:53:30.286Z,83.03
2023-01-27T17:55:57.410Z,76.90
2023-01-27T17:58:27.655Z,80.87
2023-01-27T18:00:57.199Z,78.47
2023-01-27T18:03:36.587Z,79.47
2023-01-27T18:06:06.610Z,79.03
2023-01-27T18:08:35.405Z,74.03
2023-01-27T18:11:20.740Z,78.33
2023-01-27T18:13:53.667Z,74.07
2023-01-27T18:16:23.657Z,71.77
2023-01-27T18:18:51.205Z,72.30
2023-01-27T18:21:23.698Z,78.97
2023-01-27T18:23:56.828Z,86.57
2023-01-27T18:26:32.546Z,74.90
2023-01-27T18:29:22.585Z,85.50
2023-01-27T18:31:56.198Z,84.73
2023-01-27T18:34:26.711Z,74.10
2023-01-27T18:37:03.602Z,73.23
2023-01-27T18:39:39.596Z,82.90
2023-01-27T18:42:16.069Z,87.23
2023-01-27T18:44:43.692Z,85.47
2023-01-27T18:47:19.485Z,76.83
2023-01-27T18:49:56.489Z,70.90
2023-01-27T18:52:23.751Z,63.40
2023-01-27T18:54:56.494Z,75.53
2023-01-27T18:57:23.500Z,79.17
2023-01-27T18:59:50.748Z,77.43
2023-01-27T19:02:17.870Z,68.33
2023-01-27T19:04:45.463Z,65.60
2023-01-27T19:07:15.800Z,80.07
2023-01-27T19:09:47.896Z,73.23
2023-01-27T19:12:15.453Z,69.23
2023-01-27T19:14:42.708Z,73.10
2023-01-27T19:17:17.979Z,73.20
2023-01-27T19:19:45.870Z,71.97
2023-01-27T19:22:17.581Z,71.73
2023-01-27T19:24:48.542Z,71.50
2023-01-27T19:27:17.699Z,75.33
2023-01-27T19:29:45.109Z,65.77
2023-01-27T19:32:14.364Z,71.00
2023-01-27T19:34:41.938Z,72.27
2023-01-27T19:37:18.474Z,57.50
2023-01-27T19:39:49.210Z,64.30
2023-01-27T19:42:16.689Z,72.07
2023-01-27T19:44:44.014Z,60.63
2023-01-27T19:47:13.368Z,68.53
2023-01-27T19:49:41.082Z,64.23
2023-01-27T19:52:10.089Z,69.73
2023-01-27T19:54:37.379Z,69.83
2023-01-27T19:57:05.074Z,62.03
2023-01-27T19:59:32.446Z,68.00
2023-01-27T20:01:59.406Z,62.87
2023-01-27T20:04:27.278Z,69.27
2023-01-27T20:06:54.291Z,57.17
2023-01-27T20:09:21.465Z,59.10
2023-01-27T20:11:48.443Z,58.40
2023-01-27T20:14:19.283Z,66.67
2023-01-27T20:16:47.399Z,55.00
2023-01-27T20:19:16.101Z,69.43
2023-01-27T20:21:44.036Z,67.20
2023-01-27T20:24:15.627Z,68.37
2023-01-27T20:26:42.625Z,82.67
2023-01-27T20:29:09.931Z,65.57
2023-01-27T20:31:39.218Z,60.50
2023-01-27T20:34:06.638Z,64.23
2023-01-27T20:36:33.561Z,65.10
2023-01-27T20:39:00.810Z,66.50
2023-01-27T20:41:28.342Z,70.90
2023-01-27T20:43:57.718Z,68.00
2023-01-27T20:46:25.100Z,66.53
2023-01-27T20:48:52.567Z,64.93
2023-01-27T20:51:19.916Z,70.13
2023-01-27T20:53:47.252Z,66.83
2023-01-27T20:56:19.447Z,60.07
2023-01-27T20:58:47.845Z,66.07
2023-01-27T21:01:18.091Z,57.57
2023-01-27T21:03:45.426Z,53.80
2023-01-27T21:06:13.970Z,62.10
2023-01-27T21:08:42.736Z,63.40
2023-01-27T21:11:13.153Z,63.00
2023-01-27T21:13:40.540Z,53.73
2023-01-27T21:16:08.293Z,59.47
2023-01-27T21:18:36.569Z,57.73
2023-01-27T21:21:04.219Z,54.23
2023-01-27T21:23:33.649Z,54.73
2023-01-27T21:26:11.646Z,52.57
2023-01-27T21:28:38.908Z,51.30
2023-01-27T21:31:10.811Z,43.27
2023-01-27T21:33:39.409Z,53.27
2023-01-27T21:36:10.339Z,50.50
2023-01-27T21:38:38.595Z,45.67
2023-01-27T21:41:10.972Z,49.03
2023-01-27T21:43:57.323Z,49.20
2023-01-27T21:46:24.417Z,47.30
2023-01-27T21:48:51.658Z,42.87
2023-01-27T21:51:18.616Z,54.30
2023-01-27T21:53:45.999Z,56.03
2023-01-27T21:56:13.445Z,47.77
2023-01-27T21:58:40.697Z,46.60
2023-01-27T22:01:09.729Z,46.20
2023-01-27T22:03:38.183Z,43.63
2023-01-27T22:06:08.960Z,44.73
2023-01-27T22:08:37.058Z,43.83
2023-01-27T22:11:11.574Z,50.80
2023-01-27T22:13:43.440Z,46.23
2023-01-27T22:16:16.205Z,54.13
2023-01-27T22:18:43.865Z,55.73
2023-01-27T22:21:10.913Z,47.23
2023-01-27T22:23:38.279Z,44.73
2023-01-27T22:26:09.154Z,43.70
2023-01-27T22:28:36.436Z,46.97
2023-01-27T22:31:03.439Z,45.70
2023-01-27T22:33:32.147Z,47.23
2023-01-27T22:36:01.187Z,45.97
2023-01-27T22:38:28.494Z,49.03
2023-01-27T22:40:56.943Z,45.50
2023-01-27T22:43:24.362Z,51.73
2023-01-27T22:45:51.334Z,45.13
2023-01-27T22:48:18.571Z,40.93
2023-01-27T22:50:45.687Z,50.50
2023-01-27T22:53:12.992Z,45.10
2023-01-27T22:55:39.967Z,48.97
2023-01-27T22:58:07.937Z,45.97
2023-01-27T23:00:34.931Z,45.03
2023-01-27T23:03:02.189Z,47.57
2023-01-27T23:05:29.234Z,47.03
2023-01-27T23:07:56.479Z,49.67
2023-01-27T23:10:23.793Z,38.23
2023-01-27T23:12:51.279Z,45.80
2023-01-27T23:15:18.355Z,49.40
2023-01-27T23:17:47.289Z,40.90
2023-01-27T23:20:14.911Z,45.70
2023-01-27T23:22:43.287Z,46.07
2023-01-27T23:25:11.939Z,49.43
2023-01-27T23:27:40.506Z,44.80
2023-01-27T23:30:09.918Z,44.93
2023-01-27T23:32:38.492Z,42.93
2023-01-27T23:35:06.059Z,52.23
2023-01-27T23:37:33.482Z,52.23
2023-01-27T23:40:00.423Z,48.23
2023-01-27T23:42:27.656Z,52.03
2023-01-27T23:44:54.612Z,50.40
2023-01-27T23:47:24.894Z,48.10
2023-01-27T23:49:51.936Z,48.13
2023-01-27T23:52:19.176Z,47.03
2023-01-27T23:54:46.217Z,42.87
2023-01-27T23:57:13.565Z,48.57
2023-01-27T23:59:41.360Z,46.13
